createdAt,value
2019-04-09T00:01:26.456Z,4.30
2019-04-09T00:03:56.441Z,4.20
2019-04-09T00:06:25.925Z,4.20
2019-04-09T00:08:58.422Z,4.10
2019-04-09T00:11:28.343Z,4.20
2019-04-09T00:13:57.790Z,4.20
2019-04-09T00:16:27.295Z,4.10
2019-04-09T00:18:56.357Z,4.10
2019-04-09T00:21:27.376Z,4.00
2019-04-09T00:23:57.331Z,4.10
2019-04-09T00:26:26.415Z,4.10
2019-04-09T00:28:55.875Z,4.00
2019-04-09T00:31:24.956Z,4.00
2019-04-09T00:33:54.998Z,3.90
2019-04-09T00:36:26.699Z,3.90
2019-04-09T00:38:56.054Z,3.90
2019-04-09T00:41:25.418Z,3.90
2019-04-09T00:43:55.391Z,3.90
2019-04-09T00:46:25.433Z,3.80
2019-04-09T00:48:54.632Z,3.80
2019-04-09T00:51:24.566Z,3.80
2019-04-09T00:53:53.819Z,3.80
2019-04-09T00:56:27.454Z,3.80
2019-04-09T01:01:48.602Z,3.70
2019-04-09T01:04:17.563Z,3.70
2019-04-09T01:06:46.538Z,3.70
2019-04-09T01:09:16.676Z,3.70
2019-04-09T01:11:45.814Z,3.60
2019-04-09T01:14:15.606Z,3.50
2019-04-09T01:16:44.611Z,3.50
2019-04-09T01:19:17.047Z,3.60
2019-04-09T01:21:43.988Z,3.50
2019-04-09T01:24:24.531Z,3.50
2019-04-09T01:26:56.748Z,3.40
2019-04-09T01:29:34.284Z,3.40
2019-04-09T01:32:22.803Z,3.30
2019-04-09T01:35:11.850Z,3.30
2019-04-09T01:37:52.088Z,3.30
2019-04-09T01:40:40.054Z,3.30
2019-04-09T01:43:32.341Z,3.30
2019-04-09T01:46:20.429Z,3.30
2019-04-09T01:49:27.686Z,3.30
2019-04-09T01:52:14.748Z,3.30
2019-04-09T01:55:02.867Z,3.30
2019-04-09T01:57:46.130Z,3.30
2019-04-09T02:00:43.435Z,3.20
2019-04-09T02:03:31.516Z,3.20
2019-04-09T02:06:16.734Z,3.20
2019-04-09T02:09:01.142Z,3.30
2019-04-09T02:11:55.551Z,3.20
2019-04-09T02:14:45.967Z,3.20
2019-04-09T02:17:32.859Z,3.10
2019-04-09T02:20:21.722Z,3.10
2019-04-09T02:23:09.443Z,3.20
2019-04-09T02:25:47.812Z,3.20
2019-04-09T02:28:38.727Z,3.10
2019-04-09T02:31:26.616Z,3.10
2019-04-09T02:34:18.856Z,3.10
2019-04-09T02:36:59.035Z,3.20
2019-04-09T02:40:00.816Z,3.20
2019-04-09T02:42:40.290Z,3.20
2019-04-09T02:45:43.421Z,3.20
2019-04-09T02:48:21.322Z,3.30
2019-04-09T02:51:15.854Z,3.20
2019-04-09T02:54:10.178Z,3.20
2019-04-09T02:56:50.530Z,3.20
2019-04-09T02:59:32.257Z,3.20
2019-04-09T03:02:18.318Z,3.20
2019-04-09T03:04:55.884Z,3.20
2019-04-09T03:07:42.638Z,3.20
2019-04-09T03:10:31.878Z,3.20
2019-04-09T03:13:10.314Z,3.20
2019-04-09T03:16:16.760Z,3.30
2019-04-09T03:19:10.881Z,3.20
2019-04-09T03:21:47.116Z,3.10
2019-04-09T03:24:35.198Z,3.10
2019-04-09T03:27:19.088Z,3.10
2019-04-09T03:29:58.851Z,3.10
2019-04-09T03:32:40.243Z,3.20
2019-04-09T03:35:35.896Z,3.10
2019-04-09T03:38:28.970Z,3.20
2019-04-09T03:41:21.318Z,3.20
2019-04-09T03:43:57.991Z,3.10
2019-04-09T03:46:45.997Z,3.10
2019-04-09T03:49:34.059Z,3.10
2019-04-09T03:52:31.931Z,3.10
2019-04-09T03:55:26.654Z,3.10
2019-04-09T03:58:24.956Z,3.10
2019-04-09T04:01:22.234Z,3.00
2019-04-09T04:04:01.010Z,3.00
2019-04-09T04:06:52.710Z,3.00
2019-04-09T04:09:52.585Z,2.90
2019-04-09T04:12:41.557Z,2.90
2019-04-09T04:15:26.891Z,2.90
2019-04-09T04:18:13.754Z,2.80
2019-04-09T04:20:51.195Z,2.80
2019-04-09T04:23:39.519Z,2.70
2019-04-09T04:26:26.579Z,2.80
2019-04-09T04:29:14.920Z,2.80
2019-04-09T04:32:06.942Z,2.80
2019-04-09T04:34:53.473Z,2.80
2019-04-09T04:37:41.725Z,2.80
2019-04-09T04:40:22.275Z,2.80
2019-04-09T04:43:10.439Z,2.70
2019-04-09T04:45:48.724Z,2.70
2019-04-09T04:48:37.895Z,2.70
2019-04-09T04:51:20.236Z,2.70
2019-04-09T04:53:57.449Z,2.80
2019-04-09T04:56:35.573Z,2.70
2019-04-09T04:59:26.686Z,2.70
2019-04-09T05:02:22.758Z,2.70
2019-04-09T05:05:09.392Z,2.60
2019-04-09T05:08:09.562Z,2.60
2019-04-09T05:10:54.392Z,2.60
2019-04-09T05:13:40.921Z,2.60
2019-04-09T05:16:20.028Z,2.60
2019-04-09T05:19:08.309Z,2.70
2019-04-09T05:22:08.068Z,2.70
2019-04-09T05:25:09.031Z,2.70
2019-04-09T05:28:12.057Z,2.70
2019-04-09T05:31:00.790Z,2.70
2019-04-09T05:33:41.386Z,2.70
2019-04-09T05:36:26.229Z,2.70
2019-04-09T05:39:23.997Z,2.70
2019-04-09T05:41:58.398Z,2.80
2019-04-09T05:45:01.697Z,2.80
2019-04-09T05:47:52.806Z,2.90
2019-04-09T05:50:39.620Z,3.00
2019-04-09T05:53:14.937Z,3.00
2019-04-09T05:55:58.603Z,3.00
2019-04-09T05:59:04.758Z,3.10
2019-04-09T06:01:51.567Z,3.20
2019-04-09T06:04:38.199Z,3.30
2019-04-09T06:07:24.989Z,3.30
2019-04-09T06:09:53.895Z,3.50
2019-04-09T06:12:22.903Z,3.50
2019-04-09T06:14:53.151Z,3.60
2019-04-09T06:17:23.209Z,3.60
2019-04-09T06:19:52.528Z,3.70
2019-04-09T06:22:21.508Z,3.80
2019-04-09T06:24:50.675Z,3.90
2019-04-09T06:27:20.369Z,4.00
2019-04-09T06:29:50.052Z,4.00
2019-04-09T06:32:51.156Z,4.10
2019-04-09T06:35:40.330Z,4.20
2019-04-09T06:38:46.397Z,4.30
2019-04-09T06:41:21.461Z,4.40
2019-04-09T06:44:08.488Z,4.50
2019-04-09T06:47:01.012Z,4.60
2019-04-09T06:49:38.737Z,4.70
2019-04-09T06:52:16.327Z,4.80
2019-04-09T06:55:09.054Z,4.80
2019-04-09T06:57:45.709Z,4.90
2019-04-09T07:00:28.560Z,5.00
2019-04-09T07:03:32.224Z,5.10
2019-04-09T07:06:18.596Z,5.10
2019-04-09T07:08:54.978Z,5.20
2019-04-09T07:11:32.838Z,5.20
2019-04-09T07:14:18.862Z,5.30
2019-04-09T07:16:56.028Z,5.40
2019-04-09T07:19:39.386Z,5.40
2019-04-09T07:22:30.314Z,5.60
2019-04-09T07:25:11.915Z,5.70
2019-04-09T07:28:15.200Z,5.80
2019-04-09T07:30:56.003Z,5.90
2019-04-09T07:33:50.408Z,5.90
2019-04-09T07:36:44.503Z,5.90
2019-04-09T07:39:23.671Z,6.00
2019-04-09T07:42:12.104Z,6.10
2019-04-09T07:44:57.327Z,6.20
2019-04-09T07:47:52.895Z,6.20
2019-04-09T07:50:36.825Z,6.30
2019-04-09T07:53:30.190Z,6.40
2019-04-09T07:56:13.993Z,6.50
2019-04-09T07:59:08.135Z,6.60
2019-04-09T08:02:02.197Z,6.60
2019-04-09T08:04:56.473Z,6.60
2019-04-09T08:07:47.303Z,6.70
2019-04-09T08:10:35.401Z,6.80
2019-04-09T08:13:25.814Z,6.90
2019-04-09T08:16:32.039Z,6.90
2019-04-09T08:19:20.625Z,7.00
2019-04-09T08:22:09.295Z,7.10
2019-04-09T08:24:58.377Z,7.20
2019-04-09T08:27:46.744Z,7.20
2019-04-09T08:30:44.956Z,7.20
2019-04-09T08:33:29.205Z,7.20
2019-04-09T08:36:24.221Z,7.20
2019-04-09T08:39:03.377Z,7.20
2019-04-09T08:41:38.110Z,7.10
2019-04-09T08:44:31.973Z,7.30
2019-04-09T08:47:39.866Z,7.40
2019-04-09T08:50:29.305Z,7.40
2019-04-09T08:53:02.934Z,7.50
2019-04-09T08:55:39.314Z,7.50
2019-04-09T08:58:33.486Z,7.60
2019-04-09T09:01:46.354Z,7.70
2019-04-09T09:04:11.135Z,7.70
2019-04-09T09:06:55.555Z,7.80
2019-04-09T09:09:46.051Z,8.00
2019-04-09T09:12:24.913Z,8.20
2019-04-09T09:15:06.691Z,8.40
2019-04-09T09:17:53.748Z,8.60
2019-04-09T09:20:42.285Z,8.70
2019-04-09T09:23:28.628Z,8.70
2019-04-09T09:26:15.650Z,8.60
2019-04-09T09:28:57.728Z,8.50
2019-04-09T09:32:01.179Z,8.60
2019-04-09T09:34:37.646Z,8.60
2019-04-09T09:37:20.208Z,8.60
2019-04-09T09:40:02.986Z,8.50
2019-04-09T09:42:48.809Z,8.50
2019-04-09T09:45:40.214Z,8.60
2019-04-09T09:48:26.855Z,8.70
2019-04-09T09:51:34.590Z,8.90
2019-04-09T09:54:10.501Z,9.10
2019-04-09T09:56:51.925Z,9.10
2019-04-09T09:59:40.873Z,9.10
2019-04-09T10:02:35.360Z,9.20
2019-04-09T10:05:12.956Z,9.30
2019-04-09T10:08:05.906Z,9.10
2019-04-09T10:11:03.365Z,9.10
2019-04-09T10:14:07.698Z,9.10
2019-04-09T10:17:02.287Z,9.30
2019-04-09T10:19:44.384Z,9.50
2019-04-09T10:22:33.379Z,9.60
2019-04-09T10:25:35.588Z,9.80
2019-04-09T10:28:24.067Z,9.80
2019-04-09T10:31:21.004Z,9.60
2019-04-09T10:33:59.991Z,9.70
2019-04-09T10:36:39.972Z,9.80
2019-04-09T10:39:34.001Z,9.90
2019-04-09T10:42:09.308Z,9.60
2019-04-09T10:44:55.912Z,9.70
2019-04-09T10:47:45.059Z,9.90
2019-04-09T10:50:44.811Z,9.90
2019-04-09T10:53:34.161Z,9.80
2019-04-09T10:56:09.932Z,9.80
2019-04-09T10:58:45.903Z,9.70
2019-04-09T11:01:35.332Z,9.60
2019-04-09T11:04:13.974Z,9.40
2019-04-09T11:06:53.054Z,9.30
2019-04-09T11:09:36.836Z,9.20
2019-04-09T11:12:21.516Z,9.30
2019-04-09T11:15:18.117Z,9.30
2019-04-09T11:18:21.303Z,9.30
2019-04-09T11:21:02.308Z,9.50
2019-04-09T11:24:00.050Z,9.80
2019-04-09T11:26:57.998Z,9.80
2019-04-09T11:29:45.508Z,9.70
2019-04-09T11:32:29.841Z,9.50
2019-04-09T11:35:26.226Z,9.60
2019-04-09T11:38:13.067Z,9.70
2019-04-09T11:41:16.814Z,9.80
2019-04-09T11:44:08.959Z,10.00
2019-04-09T11:47:06.473Z,10.00
2019-04-09T11:49:48.869Z,10.00
2019-04-09T11:52:38.498Z,9.70
2019-04-09T11:55:41.790Z,9.50
2019-04-09T11:58:32.562Z,9.60
2019-04-09T12:01:31.857Z,10.00
2019-04-09T12:04:21.442Z,10.20
2019-04-09T12:06:59.723Z,9.90
2019-04-09T12:09:51.966Z,9.60
2019-04-09T12:12:54.031Z,9.60
2019-04-09T12:15:30.961Z,9.50
2019-04-09T12:18:17.834Z,9.50
2019-04-09T12:21:15.180Z,9.50
2019-04-09T12:24:09.398Z,9.70
2019-04-09T12:26:47.186Z,9.70
2019-04-09T12:29:37.424Z,9.80
2019-04-09T12:32:24.237Z,9.80
2019-04-09T12:35:13.422Z,9.80
2019-04-09T12:38:04.576Z,9.90
2019-04-09T12:40:41.598Z,10.10
2019-04-09T12:43:31.419Z,10.30
2019-04-09T12:46:19.302Z,10.30
2019-04-09T12:48:58.141Z,10.50
2019-04-09T12:51:37.642Z,10.70
2019-04-09T12:54:32.633Z,10.90
2019-04-09T12:57:16.143Z,10.90
2019-04-09T12:59:59.211Z,10.90
2019-04-09T13:02:36.426Z,10.90
2019-04-09T13:05:33.264Z,11.00
2019-04-09T13:08:19.934Z,11.00
2019-04-09T13:11:06.810Z,10.90
2019-04-09T13:14:07.373Z,10.70
2019-04-09T13:16:54.152Z,10.80
2019-04-09T13:19:29.254Z,10.90
2019-04-09T13:22:09.775Z,11.00
2019-04-09T13:24:52.646Z,11.00
2019-04-09T13:27:39.229Z,10.90
2019-04-09T13:30:15.752Z,10.80
2019-04-09T13:32:52.159Z,10.70
2019-04-09T13:35:44.045Z,10.70
2019-04-09T13:38:35.076Z,10.80
2019-04-09T13:41:22.201Z,10.90
2019-04-09T13:44:11.540Z,11.00
2019-04-09T13:47:05.447Z,10.90
2019-04-09T13:49:54.667Z,10.90
2019-04-09T13:52:31.868Z,10.90
2019-04-09T13:55:02.127Z,10.80
2019-04-09T13:57:31.778Z,10.80
2019-04-09T14:00:00.737Z,10.80
2019-04-09T14:02:31.695Z,10.60
2019-04-09T14:05:08.334Z,10.70
2019-04-09T14:07:37.593Z,10.90
2019-04-09T14:10:08.189Z,11.20
2019-04-09T14:12:37.264Z,11.20
2019-04-09T14:15:09.986Z,11.20
2019-04-09T14:17:39.147Z,11.10
2019-04-09T14:20:09.521Z,10.80
2019-04-09T14:22:39.297Z,10.60
2019-04-09T14:25:10.186Z,10.60
2019-04-09T14:27:40.645Z,10.80
2019-04-09T14:30:11.228Z,10.90
2019-04-09T14:32:40.750Z,10.90
2019-04-09T14:35:10.075Z,10.80
2019-04-09T14:37:39.544Z,10.60
2019-04-09T14:40:10.286Z,10.50
2019-04-09T14:42:39.170Z,10.40
2019-04-09T14:45:09.274Z,10.40
2019-04-09T14:47:39.106Z,10.40
2019-04-09T14:50:09.503Z,10.50
2019-04-09T14:52:49.969Z,10.60
2019-04-09T14:55:09.387Z,10.60
2019-04-09T14:57:38.601Z,10.70
2019-04-09T15:00:10.665Z,10.70
2019-04-09T15:02:40.617Z,10.70
2019-04-09T15:05:09.925Z,10.60
2019-04-09T15:07:39.572Z,10.50
2019-04-09T15:10:09.170Z,10.30
2019-04-09T15:12:38.249Z,10.20
2019-04-09T15:15:07.983Z,10.30
2019-04-09T15:17:37.461Z,10.30
2019-04-09T15:20:07.081Z,10.20
2019-04-09T15:22:36.629Z,10.30
2019-04-09T15:25:07.033Z,10.20
2019-04-09T15:27:36.106Z,10.10
2019-04-09T15:30:06.328Z,10.00
2019-04-09T15:32:35.440Z,9.90
2019-04-09T15:35:05.645Z,9.80
2019-04-09T15:37:35.389Z,9.70
2019-04-09T15:40:04.998Z,9.60
2019-04-09T15:42:34.263Z,9.50
2019-04-09T15:45:04.568Z,9.50
2019-04-09T15:47:33.733Z,9.50
2019-04-09T15:50:04.997Z,9.50
2019-04-09T15:52:33.287Z,9.50
2019-04-09T15:55:03.213Z,9.50
2019-04-09T15:57:32.378Z,9.40
2019-04-09T16:00:01.233Z,9.30
2019-04-09T16:02:30.309Z,9.40
2019-04-09T16:04:59.397Z,9.40
2019-04-09T16:07:28.653Z,9.40
2019-04-09T16:09:58.288Z,9.40
2019-04-09T16:12:27.236Z,9.30
2019-04-09T16:14:56.431Z,9.30
2019-04-09T16:17:25.544Z,9.30
2019-04-09T16:19:54.811Z,9.30
2019-04-09T16:22:24.414Z,9.30
2019-04-09T16:25:12.662Z,9.30
2019-04-09T16:27:41.553Z,9.30
2019-04-09T16:30:11.044Z,9.10
2019-04-09T16:32:39.963Z,9.00
2019-04-09T16:35:08.921Z,9.00
2019-04-09T16:37:37.726Z,8.90
2019-04-09T16:40:06.659Z,8.80
2019-04-09T16:42:40.473Z,8.80
2019-04-09T16:45:10.000Z,8.70
2019-04-09T16:47:37.500Z,8.60
2019-04-09T16:50:06.703Z,8.60
2019-04-09T16:52:36.166Z,8.50
2019-04-09T16:55:06.391Z,8.50
2019-04-09T16:57:35.363Z,8.50
2019-04-09T17:00:05.385Z,8.40
2019-04-09T17:02:34.503Z,8.40
2019-04-09T17:05:03.526Z,8.30
2019-04-09T17:07:33.530Z,8.30
2019-04-09T17:10:03.605Z,8.30
2019-04-09T17:12:33.802Z,8.20
2019-04-09T17:15:03.140Z,8.30
2019-04-09T17:17:32.054Z,8.30
2019-04-09T17:20:01.111Z,8.40
2019-04-09T17:22:30.307Z,8.50
2019-04-09T17:24:59.451Z,8.50
2019-04-09T17:27:29.803Z,8.40
2019-04-09T17:29:59.560Z,8.30
2019-04-09T17:32:28.438Z,8.20
2019-04-09T17:34:58.244Z,8.10
2019-04-09T17:37:27.537Z,7.80
2019-04-09T17:40:03.431Z,7.80
2019-04-09T17:42:27.113Z,7.70
2019-04-09T17:44:57.672Z,7.60
2019-04-09T17:47:27.982Z,7.50
2019-04-09T17:49:57.739Z,7.50
2019-04-09T17:52:26.820Z,7.30
2019-04-09T17:54:56.680Z,7.30
2019-04-09T17:57:26.052Z,7.20
2019-04-09T17:59:55.177Z,7.20
2019-04-09T18:02:24.364Z,7.10
2019-04-09T18:04:54.991Z,7.00
2019-04-09T18:07:24.227Z,6.90
2019-04-09T18:09:53.752Z,6.90
2019-04-09T18:12:24.135Z,6.70
2019-04-09T18:14:53.745Z,6.70
2019-04-09T18:17:23.007Z,6.60
2019-04-09T18:19:52.982Z,6.50
2019-04-09T18:22:23.079Z,6.50
2019-04-09T18:24:52.308Z,6.50
2019-04-09T18:27:21.334Z,6.40
2019-04-09T18:29:50.266Z,6.30
2019-04-09T18:32:19.134Z,6.30
2019-04-09T18:34:54.672Z,6.30
2019-04-09T18:37:18.725Z,6.20
2019-04-09T18:39:47.935Z,6.10
2019-04-09T18:42:17.180Z,6.00
2019-04-09T18:44:47.414Z,6.00
2019-04-09T18:47:17.956Z,5.90
2019-04-09T18:49:47.167Z,5.90
2019-04-09T18:52:16.110Z,5.80
2019-04-09T18:54:46.073Z,5.70
2019-04-09T18:57:15.000Z,5.70
2019-04-09T18:59:44.280Z,5.60
2019-04-09T19:02:14.360Z,5.60
2019-04-09T19:04:43.833Z,5.50
2019-04-09T19:07:13.727Z,5.40
2019-04-09T19:09:44.064Z,5.40
2019-04-09T19:12:13.230Z,5.20
2019-04-09T19:14:42.177Z,5.20
2019-04-09T19:17:11.249Z,5.10
2019-04-09T19:19:40.616Z,5.00
2019-04-09T19:22:09.587Z,5.00
2019-04-09T19:24:39.662Z,4.90
2019-04-09T19:27:09.535Z,4.90
2019-04-09T19:29:39.221Z,4.70
2019-04-09T19:32:09.605Z,4.70
2019-04-09T19:34:39.681Z,4.60
2019-04-09T19:37:08.745Z,4.60
2019-04-09T19:39:39.622Z,4.60
2019-04-09T19:42:13.961Z,4.50
2019-04-09T19:44:39.307Z,4.50
2019-04-09T19:47:09.247Z,4.40
2019-04-09T19:49:39.222Z,4.30
2019-04-09T19:52:08.275Z,4.20
2019-04-09T19:54:37.742Z,4.20
2019-04-09T19:57:07.899Z,4.20
2019-04-09T19:59:36.972Z,4.10
2019-04-09T20:02:06.359Z,4.00
2019-04-09T20:04:35.843Z,4.10
2019-04-09T20:07:05.821Z,4.00
2019-04-09T20:09:34.825Z,4.00
2019-04-09T20:12:04.790Z,3.90
2019-04-09T20:14:34.772Z,3.90
2019-04-09T20:17:06.677Z,3.90
2019-04-09T20:19:36.056Z,3.80
2019-04-09T20:22:05.352Z,3.80
2019-04-09T20:24:35.088Z,3.80
2019-04-09T20:27:04.522Z,3.70
2019-04-09T20:29:33.822Z,3.70
2019-04-09T20:32:10.410Z,3.70
2019-04-09T20:34:42.881Z,3.60
2019-04-09T20:37:10.455Z,3.50
2019-04-09T20:39:41.461Z,3.50
2019-04-09T20:42:10.625Z,3.40
2019-04-09T20:44:40.098Z,3.50
2019-04-09T20:47:09.404Z,3.40
2019-04-09T20:49:38.820Z,3.40
2019-04-09T20:52:08.020Z,3.30
2019-04-09T20:54:41.087Z,3.30
2019-04-09T20:57:10.070Z,3.30
2019-04-09T21:00:03.368Z,3.30
2019-04-09T21:02:45.000Z,3.30
2019-04-09T21:05:16.231Z,3.30
2019-04-09T21:07:45.113Z,3.30
2019-04-09T21:10:14.896Z,3.20
2019-04-09T21:12:44.619Z,3.10
2019-04-09T21:15:14.483Z,3.00
2019-04-09T21:17:44.211Z,3.00
2019-04-09T21:20:13.747Z,3.00
2019-04-09T21:22:43.084Z,3.00
2019-04-09T21:25:12.718Z,3.00
2019-04-09T21:27:42.010Z,3.00
2019-04-09T21:30:11.454Z,3.00
2019-04-09T21:32:40.446Z,3.00
2019-04-09T21:35:09.581Z,2.90
2019-04-09T21:37:38.569Z,2.90
2019-04-09T21:40:07.928Z,2.80
2019-04-09T21:42:36.782Z,2.90
2019-04-09T21:45:06.108Z,2.90
2019-04-09T21:47:35.109Z,2.80
2019-04-09T21:50:04.591Z,2.70
2019-04-09T21:52:33.531Z,2.70
2019-04-09T21:55:02.558Z,2.60
2019-04-09T21:57:31.570Z,2.60
2019-04-09T22:00:00.564Z,2.60
2019-04-09T22:02:29.666Z,2.60
2019-04-09T22:04:58.783Z,2.60
2019-04-09T22:07:27.762Z,2.50
2019-04-09T22:09:56.909Z,2.50
2019-04-09T22:12:25.768Z,2.50
2019-04-09T22:14:54.670Z,2.50
2019-04-09T22:17:23.667Z,2.40
2019-04-09T22:19:52.703Z,2.40
2019-04-09T22:22:21.584Z,2.40
2019-04-09T22:24:50.419Z,2.40
2019-04-09T22:27:20.457Z,2.40
2019-04-09T22:29:49.665Z,2.40
2019-04-09T22:32:18.484Z,2.30
2019-04-09T22:34:48.498Z,2.30
2019-04-09T22:37:17.858Z,2.20
2019-04-09T22:39:46.714Z,2.30
2019-04-09T22:42:15.821Z,2.30
2019-04-09T22:44:45.707Z,2.20
2019-04-09T22:47:15.285Z,2.20
2019-04-09T22:49:44.280Z,2.20
2019-04-09T22:52:13.190Z,2.20
2019-04-09T22:54:42.057Z,2.20
2019-04-09T22:57:11.569Z,2.10
2019-04-09T22:59:40.617Z,2.00
2019-04-09T23:02:28.504Z,2.00
2019-04-09T23:05:14.998Z,2.00
2019-04-09T23:07:54.672Z,1.90
2019-04-09T23:10:39.796Z,1.90
2019-04-09T23:13:08.658Z,1.90
2019-04-09T23:15:40.072Z,1.80
2019-04-09T23:18:09.472Z,1.80
2019-04-09T23:20:38.955Z,1.80
2019-04-09T23:23:08.940Z,1.80
2019-04-09T23:25:37.808Z,1.80
2019-04-09T23:28:07.383Z,1.70
2019-04-09T23:30:36.398Z,1.70
2019-04-09T23:33:06.038Z,1.60
2019-04-09T23:35:35.087Z,1.60
2019-04-09T23:38:04.374Z,1.60
2019-04-09T23:40:33.596Z,1.60
2019-04-09T23:43:03.599Z,1.50
2019-04-09T23:45:32.742Z,1.50
2019-04-09T23:48:01.843Z,1.50
2019-04-09T23:50:31.757Z,1.40
2019-04-09T23:53:00.993Z,1.40
2019-04-09T23:55:29.856Z,1.40
2019-04-09T23:57:58.674Z,1.40
